ADDS METAR Data

Data at: 2106 UTC 22 May 2018

METAR for:EGLF (Farnborough Arpt, --, UK)
Text:EGLF 221950Z 02009KT CAVOK 17/08 Q1019
Temperature: 17.0°C ( 63°F)
Dewpoint: 8.0°C ( 46°F) [RH = 55%]
Pressure (altimeter):30.09 inches Hg (1019.0 mb)
Winds:from the NNE (20 degrees) at 10 MPH (9 knots; 4.6 m/s)
Visibility:6 or more sm (10+ km)
Ceiling:ceiling and visibility are OK
Clouds:unknown

TAF for:EGLF (Farnborough Arpt, --, UK) issued at 1706 UTC 22 May 2018
Text:TAF EGLF 221706Z 2218/2221 02012KT 9999 FEW045
Forecast period:1800 to 2100 UTC 22 May 2018
Forecast type:FROM: standard forecast or significant change
Winds:from the NNE (20 degrees) at 14 MPH (12 knots; 6.2 m/s)
Visibility:6 or more sm (10+ km)
Ceiling:at least 12,000 feet AGL
Clouds: few clouds at 4500 feet AGL
Text:PROB30
Forecast period:1800 to 1900 UTC 22 May 2018
Forecast type:TEMPORARY: The following changes expected for less than half the time period
Visibility: 2.49 sm ( 4.01 km)
Clouds:missing
Weather:+SHRA (heavy rain showers)

METAR for:EGUB (Benson(RAF), --, UK)
Text:EGUB 222050Z 02012KT CAVOK 14/08 Q1020 BLU BECMG BKN010 GRN
Temperature: 14.0°C ( 57°F)
Dewpoint: 8.0°C ( 46°F) [RH = 67%]
Pressure (altimeter):30.12 inches Hg (1020.0 mb)
Winds:from the NNE (20 degrees) at 14 MPH (12 knots; 6.2 m/s)
Visibility:6 or more sm (10+ km)
Ceiling:ceiling and visibility are OK
Clouds:unknown

TAF for:EGUB (Benson(RAF), --, UK) issued at 1934 UTC 22 May 2018
Text:TAF COR EGUB 221934Z 2221/2303 03010KT CAVOK
Forecast period:2100 to 2200 UTC 22 May 2018
Forecast type:FROM: standard forecast or significant change
Winds:from the NNE (30 degrees) at 12 MPH (10 knots; 5.1 m/s)
Visibility:6 or more sm (10+ km)
Clouds:missing
Weather:NSW (no significant weather)
Text:BECMG 2222/2301 7000 HZ BKN007
Forecast period:2200 UTC 22 May 2018 to 0300 UTC 23 May 2018
Forecast type:BECOMING: Conditions expected to become as follows by 0100 UTC 23 May 2018
Winds:from the NNE (30 degrees) at 12 MPH (10 knots; 5.1 m/s)
Visibility: 4 sm ( 7 km)
Ceiling:700 feet AGL
Clouds: broken clouds at 700 feet AGL
Weather:HZ (haze)
Text:TEMPO 2300/2303 BKN005
Forecast period:0000 to 0300 UTC 23 May 2018
Forecast type:TEMPORARY: The following changes expected for less than half the time period
Ceiling:500 feet AGL
Clouds: broken clouds at 500 feet AGL

METAR for:EGVO (Odiham(RAF), --, UK)
Text:EGVO 222050Z 02007KT CAVOK 15/08 Q1020 BLU NOSIG
Temperature: 15.0°C ( 59°F)
Dewpoint: 8.0°C ( 46°F) [RH = 63%]
Pressure (altimeter):30.12 inches Hg (1020.0 mb)
Winds:from the NNE (20 degrees) at 8 MPH (7 knots; 3.6 m/s)
Visibility:6 or more sm (10+ km)
Ceiling:ceiling and visibility are OK
Clouds:unknown

TAF for:EGVO (Odiham(RAF), --, UK) issued at 1941 UTC 22 May 2018
Text:TAF EGVO 221941Z 2221/2309 01010KT 9999 FEW045
Forecast period:2100 UTC 22 May 2018 to 0100 UTC 23 May 2018
Forecast type:FROM: standard forecast or significant change
Winds:from the N (10 degrees) at 12 MPH (10 knots; 5.1 m/s)
Visibility:6 or more sm (10+ km)
Ceiling:at least 12,000 feet AGL
Clouds: few clouds at 4500 feet AGL
Text:BECMG 2301/2304 BKN008
Forecast period:0100 to 0600 UTC 23 May 2018
Forecast type:BECOMING: Conditions expected to become as follows by 0400 UTC 23 May 2018
Winds:from the N (10 degrees) at 12 MPH (10 knots; 5.1 m/s)
Visibility:6 or more sm (10+ km)
Ceiling:800 feet AGL
Clouds: broken clouds at 800 feet AGL
Text:PROB40 2302/2306 SCT005
Forecast period:0200 to 0600 UTC 23 May 2018
Forecast type:PROBABLE: 40 percent likelihood of the following during this time
Ceiling:at least 12,000 feet AGL
Clouds: scattered clouds at 500 feet AGL
Text:BECMG 2306/2309 FEW008
Forecast period:0600 to 0900 UTC 23 May 2018
Forecast type:BECOMING: Conditions expected to become as follows by 0900 UTC 23 May 2018
Winds:from the N (10 degrees) at 12 MPH (10 knots; 5.1 m/s)
Visibility:6 or more sm (10+ km)
Ceiling:at least 12,000 feet AGL
Clouds: few clouds at 800 feet AGL

METAR for:EGTK (Oxford Arpt, --, UK)
Text:EGTK 222050Z 05007KT CAVOK 13/09 Q1021
Temperature: 13.0°C ( 55°F)
Dewpoint: 9.0°C ( 48°F) [RH = 77%]
Pressure (altimeter):30.15 inches Hg (1021.0 mb)
Winds:from the NE (50 degrees) at 8 MPH (7 knots; 3.6 m/s)
Visibility:6 or more sm (10+ km)
Ceiling:ceiling and visibility are OK
Clouds:unknown

TAF for:EGTK (Oxford Arpt, --, UK) issued at 1659 UTC 22 May 2018
Text:TAF EGTK 221659Z 2218/2222 01012KT 9999 FEW045
Forecast period:1800 to 2200 UTC 22 May 2018
Forecast type:FROM: standard forecast or significant change
Winds:from the N (10 degrees) at 14 MPH (12 knots; 6.2 m/s)
Visibility:6 or more sm (10+ km)
Ceiling:at least 12,000 feet AGL
Clouds: few clouds at 4500 feet AGL

METAR for:EGHH (Bournemouth Intl, --, UK)
Text:EGHH 222050Z 03007KT CAVOK 17/10 Q1019
Temperature: 17.0°C ( 63°F)
Dewpoint: 10.0°C ( 50°F) [RH = 63%]
Pressure (altimeter):30.09 inches Hg (1019.0 mb)
Winds:from the NNE (30 degrees) at 8 MPH (7 knots; 3.6 m/s)
Visibility:6 or more sm (10+ km)
Ceiling:ceiling and visibility are OK
Clouds:unknown

TAF for:EGHH (Bournemouth Intl, --, UK) issued at 2005 UTC 22 May 2018
Text:TAF EGHH 222005Z 2221/2306 02010KT 9999 FEW040
Forecast period:2100 UTC 22 May 2018 to 0600 UTC 23 May 2018
Forecast type:FROM: standard forecast or significant change
Winds:from the NNE (20 degrees) at 12 MPH (10 knots; 5.1 m/s)
Visibility:6 or more sm (10+ km)
Ceiling:at least 12,000 feet AGL
Clouds: few clouds at 4000 feet AGL

METAR for:
Text:No data found

TAF for:
Text:No data found